Latest Weather Observations for Red Rocks Point

IDW60801

Issued at 7:53 am WST Tuesday 16 August 2022 (issued every 10 minutes, with the page automatically refreshed every 10 minutes)

About weather observations | Map of weather stations | Latest weather observations for WA | Other Formats
Station Details ID: 011053 Name: RED ROCKS POINT Lat: -32.20 Lon: 127.53 Height: 3.1 m
Data from the previous 72 hours. | See also: Recent months at Red Rocks Point
Date/Time
WST
Temp
°C
App
Temp
°C
Dew
Point
°C
Rel
Hum
%
Delta-T
°C
Wind Press
QNH
hPa
Press
MSL
hPa
Rain since
9am
mm
Dir  Spd
km/h
Gust
km/h
Spd
kts
Gust
kts
16/07:30am 12.1 6.9 5.5 64 3.1 NNE 22 32 12 17 1016.0 1016.0 0.0
16/07:00am 11.3 5.7 5.6 68 2.6 NNE 24 33 13 18 1015.6 1015.6 0.0
16/06:30am 10.8 6.0 5.8 71 2.3 NNE 20 35 11 19 1015.9 1015.9 0.0
16/06:00am 10.4 4.9 6.0 74 2.0 NNE 24 33 13 18 1015.7 1015.7 0.0
16/05:30am 9.9 4.8 6.1 77 1.8 NNE 22 32 12 17 1015.7 1015.7 0.0
16/05:00am 9.6 4.6 6.3 80 1.5 NNE 22 32 12 17 1016.0 1016.0 0.0
16/04:30am 8.8 3.3 6.1 83 1.2 NNE 24 35 13 19 1015.5 1015.5 0.0
16/04:00am 8.5 3.8 6.1 85 1.1 NNE 20 35 11 19 1016.3 1016.3 0.0
16/03:30am 8.3 3.8 6.1 86 1.0 NNE 19 32 10 17 1016.9 1016.9 0.0
16/03:00am 8.1 4.0 6.1 87 0.9 NNE 17 24 9 13 1017.3 1017.3 0.0
16/02:30am 8.3 3.9 6.4 88 0.9 NNE 19 28 10 15 1017.8 1017.8 0.0
16/02:00am 8.0 3.9 6.3 89 0.8 NNE 17 22 9 12 1018.2 1018.2 0.0
16/01:30am 8.1 4.4 6.4 89 0.8 NNE 15 19 8 10 1018.9 1018.9 0.0
16/01:00am 8.0 4.3 6.5 90 0.7 NNE 15 20 8 11 1019.0 1019.0 0.0
16/12:30am 7.8 4.5 6.4 91 0.6 NNE 13 19 7 10 1019.7 1019.7 0.0
16/12:00am 7.9 4.6 6.2 89 0.8 N 13 15 7 8 1020.1 1020.1 0.0
 
Date/Time
WST
Temp
°C
App
Temp
°C
Dew
Point
°C
Rel
Hum
%
Delta-T
°C
Wind Press
QNH
hPa
Press
MSL
hPa
Rain since
9am
mm
Dir  Spd
km/h
Gust
km/h
Spd
kts
Gust
kts
15/11:30pm 9.0 5.8 6.8 86 1.0 N 13 17 7 9 1020.2 1020.2 0.0
15/11:00pm 9.8 6.3 7.2 84 1.2 NNE 15 20 8 11 1019.9 1019.9 0.0
15/10:30pm 10.1 5.9 7.5 84 1.2 NE 19 26 10 14 1019.1 1019.1 0.0
15/10:00pm 10.3 6.1 7.5 83 1.3 NNE 19 26 10 14 1019.2 1019.2 0.0
15/09:30pm 10.6 6.5 7.8 83 1.4 NNE 19 26 10 14 1019.6 1019.6 0.0
15/09:00pm 11.2 7.2 8.1 81 1.5 NE 19 22 10 12 1019.9 1019.9 0.0
15/08:30pm 11.5 7.9 8.5 82 1.5 NE 17 20 9 11 1020.0 1020.0 0.0
15/08:00pm 11.9 8.5 9.1 83 1.4 NE 17 22 9 12 1020.0 1020.0 0.0
15/07:30pm 12.9 9.3 9.7 81 1.6 NE 19 24 10 13 1019.8 1019.8 0.0
15/07:00pm 13.9 9.0 10.1 78 2.0 ENE 26 30 14 16 1019.8 1019.8 0.0
15/06:30pm 14.0 9.5 10.0 77 2.1 E 24 28 13 15 1019.8 1019.8 0.0
15/06:00pm 14.1 10.0 10.1 77 2.1 E 22 24 12 13 1019.8 1019.8 0.0
15/05:30pm 14.1 10.5 9.7 75 2.3 ESE 19 20 10 11 1019.7 1019.7 0.0
15/05:00pm 14.1 10.8 9.5 74 2.4 ESE 17 19 9 10 1019.5 1019.5 0.0
15/04:30pm 14.6 11.7 9.8 73 2.5 ESE 15 19 8 10 1019.6 1019.6 0.0
15/04:00pm 15.1 12.5 9.5 69 2.9 SE 13 17 7 9 1019.8 1019.8 0.0
15/03:30pm 15.7 13.2 9.6 67 3.2 SE 13 15 7 8 1019.7 1019.7 0.0
15/03:00pm 15.8 13.3 9.7 67 3.2 SE 13 15 7 8 1019.9 1019.9 0.0
15/02:30pm 16.5 13.9 9.4 63 3.7 SSE 13 15 7 8 1020.1 1020.1 0.0
15/02:00pm 16.8 14.6 9.5 62 3.8 SSE 11 15 6 8 1020.3 1020.3 0.0
15/01:30pm 16.8 14.9 9.2 61 3.9 SSE 9 13 5 7 1020.4 1020.4 0.0
15/01:00pm 16.6 14.8 9.3 62 3.8 SSE 9 9 5 5 1020.7 1020.7 0.0
15/12:30pm 16.2 14.6 8.9 62 3.7 SSE 7 9 4 5 1021.0 1021.0 0.0
15/12:00pm 17.0 15.8 10.4 65 3.5 SE 7 9 4 5 1021.5 1021.5 0.0
15/11:30am 16.9 15.8 10.7 67 3.3 SE 7 9 4 5 1021.9 1021.9 0.0
15/11:00am 16.1 14.9 10.2 68 3.1 SSE 7 9 4 5 1022.1 1022.1 0.0
15/10:30am 16.1 14.9 10.4 69 3.0 SSE 7 9 4 5 1022.2 1022.2 0.0
15/10:00am 16.6 14.6 10.2 66 3.4 S 11 15 6 8 1022.2 1022.2 0.0
15/09:30am 16.9 14.2 8.8 59 4.2 SW 13 17 7 9 1022.2 1022.2 0.0
15/09:00am 16.5 14.6 9.0 61 3.8 SW 9 15 5 8 1022.2 1022.2 0.0
15/08:30am 15.6 13.7 9.1 65 3.3 SW 9 13 5 7 1022.3 1022.3 0.0
15/08:00am 13.4 11.8 8.9 74 2.3 WNW 7 11 4 6 1021.9 1021.9 0.0
15/07:30am 9.9 6.4 7.2 83 1.3 NW 15 17 8 9 1021.6 1021.6 0.0
15/07:00am 7.1 2.5 5.4 89 0.8 WNW 19 20 10 11 1021.2 1021.2 0.0
15/06:30am 6.4 1.7 5.0 91 0.6 NW 19 20 10 11 1020.8 1020.8 0.0
15/06:00am 6.8 2.5 5.1 89 0.7 NW 17 19 9 10 1020.6 1020.6 0.0
15/05:30am 7.9 4.5 5.9 87 0.9 WNW 13 17 7 9 1020.6 1020.6 0.0
15/05:00am 9.6 6.7 6.5 81 1.4 WNW 11 17 6 9 1020.5 1020.5 0.0
15/04:30am 13.1 10.4 8.8 75 2.2 SSW 13 17 7 9 1020.3 1020.3 0.0
15/04:00am 13.4 10.4 9.1 75 2.2 SSW 15 20 8 11 1020.1 1020.1 0.0
15/03:30am 13.2 10.6 9.3 77 2.0 SSW 13 19 7 10 1019.9 1019.9 0.0
15/03:00am 13.3 9.8 8.8 74 2.3 SW 17 20 9 11 1019.9 1019.9 0.0
15/02:30am 13.3 10.1 8.6 73 2.4 SW 15 20 8 11 1019.9 1019.9 0.0
15/02:00am 13.2 9.6 8.5 73 2.3 SW 17 20 9 11 1019.9 1019.9 0.0
15/01:30am 13.6 9.6 8.2 70 2.7 SSW 19 28 10 15 1019.8 1019.8 0.0
15/01:00am 13.5 9.3 8.4 71 2.5 SW 20 28 11 15 1020.1 1020.1 0.0
15/12:30am 13.6 9.1 8.7 72 2.5 SW 22 30 12 16 1020.0 1020.0 0.0
15/12:00am 13.5 9.7 9.2 75 2.2 SW 19 26 10 14 1020.2 1020.2 0.0
 
Date/Time
WST
Temp
°C
App
Temp
°C
Dew
Point
°C
Rel
Hum
%
Delta-T
°C
Wind Press
QNH
hPa
Press
MSL
hPa
Rain since
9am
mm
Dir  Spd
km/h
Gust
km/h
Spd
kts
Gust
kts
14/11:30pm 13.3 10.2 9.0 75 2.2 SW 15 22 8 12 1020.3 1020.3 0.0
14/11:00pm 13.3 9.9 9.0 75 2.2 SW 17 20 9 11 1020.5 1020.5 0.0
14/10:30pm 13.6 9.3 7.8 68 2.9 SW 20 32 11 17 1020.4 1020.4 0.0
14/10:00pm 13.5 9.5 8.4 71 2.5 SW 19 28 10 15 1020.4 1020.4 0.0
14/09:30pm 13.7 9.2 8.7 72 2.5 SW 22 33 12 18 1020.1 1020.1 0.0
14/09:00pm 13.8 9.7 8.8 72 2.5 SW 20 28 11 15 1020.2 1020.2 0.0
14/08:30pm 13.7 9.1 8.3 70 2.7 SW 22 33 12 18 1019.9 1019.9 0.0
14/08:00pm 13.8 9.4 8.8 72 2.5 SW 22 32 12 17 1019.6 1019.6 0.0
14/07:30pm 14.1 9.6 9.9 76 2.2 SW 24 33 13 18 1019.4 1019.4 0.0
14/07:00pm 14.4 10.4 10.6 78 2.0 SW 22 33 12 18 1019.1 1019.1 0.0
14/06:30pm 14.3 11.1 11.3 82 1.6 SW 19 26 10 14 1018.5 1018.5 0.0
14/06:00pm 14.6 12.4 12.1 85 1.4 SW 15 20 8 11 1017.9 1017.9 0.0
14/05:30pm 14.1 11.1 12.0 87 1.1 SW 19 26 10 14 1017.3 1017.3 0.0
14/05:00pm 14.2 11.8 12.6 90 0.9 WSW 17 24 9 13 1016.9 1016.9 0.0
14/04:30pm 14.8 11.7 12.3 85 1.4 WSW 20 32 11 17 1016.7 1016.7 0.0
14/04:00pm 16.0 11.6 11.8 76 2.3 WSW 26 39 14 21 1016.4 1016.4 0.0
14/03:30pm 16.7 12.2 11.4 71 2.9 WSW 26 46 14 25 1016.0 1016.0 0.0
14/03:00pm 17.1 12.2 11.2 68 3.2 WSW 28 44 15 24 1015.8 1015.8 0.0
14/02:44pm 16.9 11.4 10.7 67 3.3 WSW 30 50 16 27 1015.8 1015.8 0.0
14/02:30pm 16.5 11.5 11.0 70 2.9 WSW 28 39 15 21 1015.7 1015.7 0.0
14/02:00pm 17.3 13.0 12.0 71 2.9 WSW 26 39 14 21 1015.5 1015.5 0.0
14/01:30pm 17.7 13.7 11.7 68 3.3 WSW 24 39 13 21 1015.3 1015.3 0.0
14/01:00pm 17.8 12.7 11.8 68 3.3 WSW 30 44 16 24 1015.2 1015.2 0.0
14/12:42pm 17.2 12.0 11.5 69 3.1 WSW 30 48 16 26 1015.3 1015.3 0.0
14/12:30pm 17.4 13.0 11.7 69 3.1 WSW 26 43 14 23 1015.3 1015.3 0.0
14/12:00pm 17.7 12.8 11.3 66 3.5 WSW 28 41 15 22 1015.0 1015.0 0.0
14/11:30am 18.0 12.5 10.6 62 4.0 WSW 30 44 16 24 1014.7 1014.7 0.0
14/11:18am 18.0 12.1 10.4 61 4.1 WSW 32 50 17 27 1014.7 1014.7 0.0
14/11:00am 18.0 12.4 10.1 60 4.2 WSW 30 44 16 24 1014.9 1014.9 0.0
14/10:30am 17.9 12.1 9.5 58 4.4 WSW 30 56 16 30 1014.8 1014.8 0.0
14/10:00am 18.5 13.4 9.3 55 4.8 WSW 26 41 14 22 1014.7 1014.7 0.0
14/09:30am 18.7 13.5 5.5 42 6.4 W 22 35 12 19 1014.8 1014.8 0.0
14/09:00am 17.3 12.2 3.2 39 6.5 NW 19 39 10 21 1014.4 1014.4 0.0
14/08:30am 15.4 10.3 4.2 47 5.2 NNW 20 33 11 18 1014.4 1014.4 0.0
14/08:00am 13.6 7.8 4.5 54 4.2 N 24 35 13 19 1014.1 1014.1 0.0
14/07:30am 11.8 6.5 4.8 62 3.2 N 22 33 12 18 1014.1 1014.1 0.0
14/07:00am 11.3 6.0 5.0 65 2.9 N 22 33 12 18 1013.7 1013.7 0.0
14/06:30am 10.8 5.6 5.3 69 2.5 N 22 33 12 18 1013.6 1013.6 0.0
14/06:00am 10.7 5.5 5.5 70 2.4 N 22 32 12 17 1014.0 1014.0 0.0
14/05:30am 10.4 5.8 5.8 73 2.1 NNE 19 26 10 14 1013.8 1013.8 0.0
14/05:00am 9.9 5.3 5.7 75 1.9 NNE 19 28 10 15 1014.1 1014.1 0.0
14/04:30am 9.7 5.1 5.7 76 1.8 NNE 19 26 10 14 1014.2 1014.2 0.0
14/04:00am 9.5 4.9 5.7 77 1.7 NNE 19 28 10 15 1014.3 1014.3 0.0
14/03:30am 9.5 5.0 5.9 78 1.6 NNE 19 26 10 14 1014.6 1014.6 0.0
14/03:00am 9.2 4.7 6.1 81 1.4 NNE 19 26 10 14 1014.8 1014.8 0.0
14/02:30am 8.4 3.9 6.2 86 1.0 NNE 19 24 10 13 1014.7 1014.7 0.0
14/02:00am 8.3 5.0 6.3 87 0.9 NNE 13 20 7 11 1015.5 1015.5 0.0
14/01:30am 8.3 4.9 5.9 85 1.1 NNE 13 19 7 10 1015.7 1015.7 0.0
14/01:00am 9.0 4.9 6.1 82 1.3 NNE 17 20 9 11 1016.2 1016.2 0.0
14/12:30am 9.4 4.7 6.1 80 1.5 NNE 20 28 11 15 1016.1 1016.1 0.0
14/12:00am 9.5 4.8 6.2 80 1.5 NNE 20 30 11 16 1016.0 1016.0 0.0
 
Date/Time
WST
Temp
°C
App
Temp
°C
Dew
Point
°C
Rel
Hum
%
Delta-T
°C
Wind Press
QNH
hPa
Press
MSL
hPa
Rain since
9am
mm
Dir  Spd
km/h
Gust
km/h
Spd
kts
Gust
kts
13/11:30pm 9.8 4.8 6.5 80 1.5 NNE 22 33 12 18 1016.3 1016.3 0.0
13/11:00pm 10.1 5.1 6.4 78 1.7 NNE 22 30 12 16 1017.1 1017.1 0.0
13/10:30pm 10.1 5.5 6.6 79 1.6 NE 20 28 11 15 1017.6 1017.6 0.0
13/10:00pm 10.2 5.6 6.7 79 1.6 NE 20 28 11 15 1017.9 1017.9 0.0
13/09:30pm 9.9 6.0 7.2 83 1.3 NE 17 24 9 13 1018.0 1018.0 0.0
13/09:00pm 10.3 6.5 7.7 84 1.2 NE 17 20 9 11 1018.3 1018.3 0.0
13/08:30pm 10.6 6.3 7.7 82 1.4 NE 20 26 11 14 1018.4 1018.4 0.0
13/08:00pm 10.9 6.8 7.8 81 1.5 NE 19 24 10 13 1018.6 1018.6 0.0
13/07:30pm 11.0 7.0 8.1 82 1.4 NE 19 24 10 13 1018.5 1018.5 0.0
13/07:00pm 11.3 7.4 8.7 84 1.3 NE 19 24 10 13 1018.6 1018.6 0.0
13/06:30pm 11.7 8.3 9.1 84 1.3 NE 17 22 9 12 1018.6 1018.6 0.0
13/06:00pm 13.4 7.6 9.5 77 2.0 ENE 30 35 16 19 1018.5 1018.5 0.0
13/05:30pm 13.4 7.9 9.3 76 2.1 ENE 28 33 15 18 1018.6 1018.6 0.0
13/05:00pm 13.5 8.2 9.7 78 1.9 E 28 33 15 18 1018.6 1018.6 0.0
13/04:30pm 13.6 8.6 9.6 77 2.0 E 26 32 14 17 1018.8 1018.8 0.0
13/04:00pm 14.0 9.3 9.2 73 2.4 E 24 28 13 15 1018.9 1018.9 0.0
13/03:30pm 14.3 9.7 9.5 73 2.5 E 24 30 13 16 1019.2 1019.2 0.0
13/03:00pm 14.6 10.1 10.0 74 2.4 E 24 28 13 15 1019.2 1019.2 0.0
13/02:30pm 14.9 11.2 10.3 74 2.4 E 20 26 11 14 1019.4 1019.4 0.0
13/02:00pm 14.9 10.6 10.9 77 2.1 E 24 28 13 15 1019.4 1019.4 0.0
13/01:30pm 15.2 11.3 10.8 75 2.3 E 22 26 12 14 1019.6 1019.6 0.0
13/01:00pm 14.9 11.4 10.9 77 2.1 ESE 20 22 11 12 1020.1 1020.1 0.0
13/12:30pm 15.3 12.0 11.5 78 2.0 ESE 20 24 11 13 1020.6 1020.6 0.0
13/12:00pm 15.1 11.6 10.9 76 2.2 ESE 20 20 11 11 1021.0 1021.0 0.0
13/11:30am 14.4 11.1 10.8 79 1.9 ESE 19 20 10 11 1021.8 1021.8 0.0
13/11:00am 14.7 12.3 11.3 80 1.8 ESE 15 19 8 10 1022.4 1022.4 0.0
13/10:30am 14.7 12.2 9.7 72 2.6 ENE 13 17 7 9 1023.0 1023.0 0.0
13/10:00am 15.7 13.4 9.1 65 3.4 NE 11 17 6 9 1023.3 1023.3 0.0
13/09:30am 15.2 13.5 9.8 70 2.8 NNE 9 15 5 8 1023.6 1023.6 0.0
13/09:00am 14.6 12.6 10.0 74 2.4 NE 11 17 6 9 1023.7 1023.7 0.2
13/08:30am 12.9 11.4 10.4 85 1.3 NNE 9 13 5 7 1023.8 1023.8 0.2
13/08:00am 10.8 9.2 10.3 97 0.3 NW 9 11 5 6 1023.9 1023.9 0.2

Other formats

Comma delimited format used in spreadsheet applications
http://www.bom.gov.au/fwo/IDW60801/IDW60801.94644.axf

JavaScript Object Notation format (JSON) in row-major order
http://www.bom.gov.au/fwo/IDW60801/IDW60801.94644.json

Data quality

Most of these data are generated automatically and are frequently updated. Quality checks on data are not normally performed. It is possible for incorrect values to appear. Refer to information at About Latest Weather Observations and please check the disclaimer before using these data.